Lupton, Michigan
Current Conditions -  °F | °C
As of 3:13 AM on Friday 28 Nov 2014 (Local Time) from KOSC Reporting Station
Clear Clear  
Wind Chill: -15°   Ceiling: Unl
Heat Index: -11°   Visibility: 10mi
Dew Point: -14°   Wind: 5mph
Humidity: 78%   Direction: 290°WNW
Pressure: 30.29"   Gusts: NA
Location:  44.43°N, 84.03°W
Report Text: KOSC 280813Z AUTO 29004KT 10SM CLR M11/M14 A3029 RMK AO2 T11101141
Loading
Personal Weather Stations






























Interactive Weather Map New forecast layout! Learn more

10-Day Weather Forecast

Advertisements
Track Severe Weather on mobile